sensor_id;sensor_type;location;lat;lon;timestamp;pressure;altitude;pressure_sealevel;temperature;humidity
74218;BME280;62579;47.288;18.646;2022-08-04T00:01:34;99945.59;;;22.30;41.61
74218;BME280;62579;47.288;18.646;2022-08-04T00:07:36;99951.47;;;22.34;42.19
74218;BME280;62579;47.288;18.646;2022-08-04T00:10:05;99951.16;;;22.30;41.98
74218;BME280;62579;47.288;18.646;2022-08-04T00:12:35;99946.28;;;22.21;42.37
74218;BME280;62579;47.288;18.646;2022-08-04T00:15:03;99952.81;;;22.16;41.49
74218;BME280;62579;47.288;18.646;2022-08-04T00:17:45;99942.31;;;22.14;41.22
74218;BME280;62579;47.288;18.646;2022-08-04T00:20:18;99938.22;;;22.16;42.05
74218;BME280;62579;47.288;18.646;2022-08-04T00:22:45;99940.13;;;22.13;41.37
74218;BME280;62579;47.288;18.646;2022-08-04T00:25:11;99938.59;;;22.02;42.70
74218;BME280;62579;47.288;18.646;2022-08-04T00:27:37;99939.47;;;22.05;42.69
74218;BME280;62579;47.288;18.646;2022-08-04T00:30:04;99940.44;;;22.00;42.18
74218;BME280;62579;47.288;18.646;2022-08-04T00:32:29;99941.19;;;22.00;42.55
74218;BME280;62579;47.288;18.646;2022-08-04T00:34:57;99935.34;;;21.96;41.91
74218;BME280;62579;47.288;18.646;2022-08-04T00:37:23;99942.31;;;21.97;42.01
74218;BME280;62579;47.288;18.646;2022-08-04T00:39:52;99949.44;;;21.91;42.24
74218;BME280;62579;47.288;18.646;2022-08-04T00:42:41;99943.66;;;21.96;43.25
74218;BME280;62579;47.288;18.646;2022-08-04T00:53:30;99964.81;;;21.84;44.40
74218;BME280;62579;47.288;18.646;2022-08-04T00:58:42;99960.84;;;21.78;45.63
74218;BME280;62579;47.288;18.646;2022-08-04T01:09:14;99961.88;;;21.65;45.14
74218;BME280;62579;47.288;18.646;2022-08-04T01:12:07;99960.34;;;21.54;45.77
74218;BME280;62579;47.288;18.646;2022-08-04T01:17:27;99966.06;;;21.57;45.97
74218;BME280;62579;47.288;18.646;2022-08-04T01:20:04;99967.66;;;21.60;45.69
74218;BME280;62579;47.288;18.646;2022-08-04T01:31:31;99974.41;;;21.49;46.17
74218;BME280;62579;47.288;18.646;2022-08-04T01:33:59;99960.53;;;21.57;45.91
74218;BME280;62579;47.288;18.646;2022-08-04T01:36:32;99967.34;;;21.55;46.31
74218;BME280;62579;47.288;18.646;2022-08-04T01:38:58;99962.06;;;21.50;46.54
74218;BME280;62579;47.288;18.646;2022-08-04T01:41:45;99966.47;;;21.53;46.18
74218;BME280;62579;47.288;18.646;2022-08-04T01:44:11;99973.28;;;21.52;46.54
74218;BME280;62579;47.288;18.646;2022-08-04T01:46:37;99966.69;;;21.47;47.14
74218;BME280;62579;47.288;18.646;2022-08-04T01:49:04;99960.56;;;21.49;46.94
74218;BME280;62579;47.288;18.646;2022-08-04T01:51:31;99963.03;;;21.45;47.34
74218;BME280;62579;47.288;18.646;2022-08-04T01:54:00;99962.69;;;21.41;47.12
74218;BME280;62579;47.288;18.646;2022-08-04T01:56:27;99956.59;;;21.42;47.53
74218;BME280;62579;47.288;18.646;2022-08-04T01:58:54;99964.56;;;21.38;47.58
74218;BME280;62579;47.288;18.646;2022-08-04T02:01:21;99966.53;;;21.45;47.46
74218;BME280;62579;47.288;18.646;2022-08-04T02:03:46;99959.91;;;21.41;48.38
74218;BME280;62579;47.288;18.646;2022-08-04T02:06:58;99964.66;;;21.48;48.54
74218;BME280;62579;47.288;18.646;2022-08-04T02:11:46;99957.50;;;21.45;49.12
74218;BME280;62579;47.288;18.646;2022-08-04T02:17:30;99967.16;;;21.36;49.84
74218;BME280;62579;47.288;18.646;2022-08-04T02:22:24;99961.00;;;21.45;49.24
74218;BME280;62579;47.288;18.646;2022-08-04T02:24:58;99968.50;;;21.52;49.74
74218;BME280;62579;47.288;18.646;2022-08-04T02:27:39;99969.22;;;21.53;50.11
74218;BME280;62579;47.288;18.646;2022-08-04T02:30:11;99963.06;;;21.62;50.19
74218;BME280;62579;47.288;18.646;2022-08-04T02:32:50;99960.28;;;21.62;50.49
74218;BME280;62579;47.288;18.646;2022-08-04T02:35:25;99963.13;;;21.72;50.51
74218;BME280;62579;47.288;18.646;2022-08-04T02:38:04;99963.69;;;21.70;50.53
74218;BME280;62579;47.288;18.646;2022-08-04T02:40:30;99964.09;;;21.67;50.88
74218;BME280;62579;47.288;18.646;2022-08-04T02:42:57;99963.59;;;21.61;51.22
74218;BME280;62579;47.288;18.646;2022-08-04T02:45:25;99968.09;;;21.56;51.25
74218;BME280;62579;47.288;18.646;2022-08-04T02:47:52;99966.47;;;21.53;51.47
74218;BME280;62579;47.288;18.646;2022-08-04T02:50:18;99964.75;;;21.58;51.48
74218;BME280;62579;47.288;18.646;2022-08-04T02:52:44;99964.09;;;21.49;51.95
74218;BME280;62579;47.288;18.646;2022-08-04T02:55:12;99964.81;;;21.50;51.94
74218;BME280;62579;47.288;18.646;2022-08-04T02:57:38;99962.44;;;21.46;52.53
74218;BME280;62579;47.288;18.646;2022-08-04T03:00:12;99959.75;;;21.39;52.86
74218;BME280;62579;47.288;18.646;2022-08-04T03:05:16;99952.84;;;21.47;52.98
74218;BME280;62579;47.288;18.646;2022-08-04T03:07:58;99960.03;;;21.50;52.94
74218;BME280;62579;47.288;18.646;2022-08-04T03:16:29;99964.75;;;21.40;53.72
74218;BME280;62579;47.288;18.646;2022-08-04T03:27:13;99969.75;;;21.17;54.53
74218;BME280;62579;47.288;18.646;2022-08-04T03:29:53;99969.22;;;21.11;55.08
74218;BME280;62579;47.288;18.646;2022-08-04T03:40:33;99971.88;;;21.02;55.32
74218;BME280;62579;47.288;18.646;2022-08-04T03:49:35;99973.59;;;20.97;56.10
74218;BME280;62579;47.288;18.646;2022-08-04T04:06:44;99979.44;;;21.01;56.59
74218;BME280;62579;47.288;18.646;2022-08-04T04:09:32;99987.75;;;21.01;56.78
74218;BME280;62579;47.288;18.646;2022-08-04T04:12:34;99982.78;;;21.00;56.74
74218;BME280;62579;47.288;18.646;2022-08-04T04:34:28;99983.66;;;21.69;55.80
74218;BME280;62579;47.288;18.646;2022-08-04T04:45:35;100007.84;;;22.20;54.60
74218;BME280;62579;47.288;18.646;2022-08-04T04:48:32;100002.19;;;22.27;54.46
74218;BME280;62579;47.288;18.646;2022-08-04T04:51:09;100001.53;;;22.36;54.38
74218;BME280;62579;47.288;18.646;2022-08-04T04:53:56;100004.06;;;22.42;53.84
74218;BME280;62579;47.288;18.646;2022-08-04T04:59:09;100003.34;;;22.68;52.32
74218;BME280;62579;47.288;18.646;2022-08-04T05:15:33;100014.00;;;22.98;52.51
74218;BME280;62579;47.288;18.646;2022-08-04T05:18:01;100010.53;;;23.07;51.37
74218;BME280;62579;47.288;18.646;2022-08-04T05:20:34;100024.44;;;23.26;51.43
74218;BME280;62579;47.288;18.646;2022-08-04T05:23:11;100019.66;;;23.37;51.45
74218;BME280;62579;47.288;18.646;2022-08-04T05:25:59;100019.34;;;23.32;51.29
74218;BME280;62579;47.288;18.646;2022-08-04T05:28:40;100014.19;;;23.56;50.61
74218;BME280;62579;47.288;18.646;2022-08-04T05:36:17;100018.59;;;23.87;49.40
74218;BME280;62579;47.288;18.646;2022-08-04T05:38:45;100016.41;;;23.96;49.01
74218;BME280;62579;47.288;18.646;2022-08-04T05:41:12;100011.13;;;24.00;48.72
74218;BME280;62579;47.288;18.646;2022-08-04T05:43:39;100012.00;;;24.21;48.23
74218;BME280;62579;47.288;18.646;2022-08-04T05:46:08;100018.44;;;23.95;46.88
74218;BME280;62579;47.288;18.646;2022-08-04T05:48:35;100021.81;;;24.03;47.29
74218;BME280;62579;47.288;18.646;2022-08-04T05:51:02;100023.87;;;24.12;46.68
74218;BME280;62579;47.288;18.646;2022-08-04T05:53:29;100027.50;;;24.05;47.32
74218;BME280;62579;47.288;18.646;2022-08-04T05:55:56;100026.81;;;24.14;46.74
74218;BME280;62579;47.288;18.646;2022-08-04T05:58:21;100018.59;;;24.35;46.04
74218;BME280;62579;47.288;18.646;2022-08-04T06:00:49;100031.28;;;24.48;45.69
74218;BME280;62579;47.288;18.646;2022-08-04T06:03:17;100027.37;;;24.41;44.88
74218;BME280;62579;47.288;18.646;2022-08-04T06:05:44;100031.69;;;24.64;45.12
74218;BME280;62579;47.288;18.646;2022-08-04T06:08:10;100036.22;;;24.69;45.22
74218;BME280;62579;47.288;18.646;2022-08-04T06:10:37;100032.78;;;24.99;44.39
74218;BME280;62579;47.288;18.646;2022-08-04T06:13:10;100029.97;;;25.08;43.77
74218;BME280;62579;47.288;18.646;2022-08-04T06:15:38;100033.50;;;24.99;43.61
74218;BME280;62579;47.288;18.646;2022-08-04T06:18:06;100030.81;;;25.11;44.04
74218;BME280;62579;47.288;18.646;2022-08-04T06:20:34;100027.13;;;25.18;44.17
74218;BME280;62579;47.288;18.646;2022-08-04T06:23:04;100027.53;;;25.24;43.58
74218;BME280;62579;47.288;18.646;2022-08-04T06:25:33;100032.09;;;25.20;43.28
74218;BME280;62579;47.288;18.646;2022-08-04T06:28:04;100038.28;;;25.39;42.94
74218;BME280;62579;47.288;18.646;2022-08-04T06:30:31;100030.66;;;25.49;43.21
74218;BME280;62579;47.288;18.646;2022-08-04T06:32:58;100031.31;;;25.59;42.95
74218;BME280;62579;47.288;18.646;2022-08-04T06:35:27;100031.03;;;25.77;42.93
74218;BME280;62579;47.288;18.646;2022-08-04T06:37:55;100031.19;;;25.79;42.40
74218;BME280;62579;47.288;18.646;2022-08-04T06:40:23;100025.78;;;25.92;42.23
74218;BME280;62579;47.288;18.646;2022-08-04T06:42:49;100032.22;;;25.95;42.46
74218;BME280;62579;47.288;18.646;2022-08-04T06:45:15;100028.03;;;26.05;42.25
74218;BME280;62579;47.288;18.646;2022-08-04T06:47:43;100025.44;;;25.98;42.26
74218;BME280;62579;47.288;18.646;2022-08-04T06:50:10;100021.28;;;26.20;41.61
74218;BME280;62579;47.288;18.646;2022-08-04T06:52:37;100026.13;;;26.19;42.05
74218;BME280;62579;47.288;18.646;2022-08-04T06:55:04;100026.31;;;26.33;41.44
74218;BME280;62579;47.288;18.646;2022-08-04T06:57:31;100031.38;;;26.25;41.56
74218;BME280;62579;47.288;18.646;2022-08-04T07:00:01;100027.44;;;26.40;40.71
74218;BME280;62579;47.288;18.646;2022-08-04T07:02:37;100022.69;;;26.42;41.78
74218;BME280;62579;47.288;18.646;2022-08-04T07:35:51;100028.75;;;27.89;37.85
74218;BME280;62579;47.288;18.646;2022-08-04T07:38:17;100023.84;;;28.01;37.27
74218;BME280;62579;47.288;18.646;2022-08-04T07:40:43;100019.09;;;28.04;38.13
74218;BME280;62579;47.288;18.646;2022-08-04T07:43:08;100022.81;;;28.20;38.06
74218;BME280;62579;47.288;18.646;2022-08-04T07:45:34;100011.31;;;28.28;37.09
74218;BME280;62579;47.288;18.646;2022-08-04T07:48:00;100010.19;;;28.33;37.00
74218;BME280;62579;47.288;18.646;2022-08-04T07:50:28;100014.38;;;28.45;36.29
74218;BME280;62579;47.288;18.646;2022-08-04T07:52:54;100001.69;;;28.70;36.19
74218;BME280;62579;47.288;18.646;2022-08-04T07:55:20;100004.94;;;28.78;36.79
74218;BME280;62579;47.288;18.646;2022-08-04T07:57:46;100005.16;;;28.82;36.43
74218;BME280;62579;47.288;18.646;2022-08-04T08:00:12;100004.03;;;29.00;36.13
74218;BME280;62579;47.288;18.646;2022-08-04T08:02:42;100002.03;;;29.03;35.39
74218;BME280;62579;47.288;18.646;2022-08-04T08:05:12;99998.12;;;29.22;35.20
74218;BME280;62579;47.288;18.646;2022-08-04T08:07:38;99999.25;;;29.16;34.85
74218;BME280;62579;47.288;18.646;2022-08-04T08:10:04;100005.06;;;28.93;35.13
74218;BME280;62579;47.288;18.646;2022-08-04T08:12:30;100013.16;;;29.01;35.30
74218;BME280;62579;47.288;18.646;2022-08-04T08:20:20;100006.63;;;29.24;35.05
74218;BME280;62579;47.288;18.646;2022-08-04T08:22:46;99996.78;;;29.23;34.74
74218;BME280;62579;47.288;18.646;2022-08-04T08:25:11;100002.72;;;29.29;34.58
74218;BME280;62579;47.288;18.646;2022-08-04T08:27:37;100004.97;;;29.32;35.22
74218;BME280;62579;47.288;18.646;2022-08-04T08:30:04;100010.53;;;29.59;34.45
74218;BME280;62579;47.288;18.646;2022-08-04T08:32:29;100004.47;;;29.78;34.08
74218;BME280;62579;47.288;18.646;2022-08-04T08:34:55;100001.22;;;29.98;34.14
74218;BME280;62579;47.288;18.646;2022-08-04T08:37:36;100004.16;;;29.72;33.68
74218;BME280;62579;47.288;18.646;2022-08-04T08:43:10;100002.31;;;29.77;33.88
74218;BME280;62579;47.288;18.646;2022-08-04T08:51:21;100000.78;;;30.03;34.24
74218;BME280;62579;47.288;18.646;2022-08-04T09:05:10;99988.66;;;30.59;32.52
74218;BME280;62579;47.288;18.646;2022-08-04T09:08:18;99999.34;;;30.63;32.59
74218;BME280;62579;47.288;18.646;2022-08-04T09:10:58;100005.41;;;30.73;32.44
74218;BME280;62579;47.288;18.646;2022-08-04T09:13:45;100004.97;;;30.94;31.55
74218;BME280;62579;47.288;18.646;2022-08-04T09:16:20;99999.41;;;31.12;31.95
74218;BME280;62579;47.288;18.646;2022-08-04T09:21:28;99996.72;;;31.14;31.17
74218;BME280;62579;47.288;18.646;2022-08-04T09:24:15;99998.66;;;31.27;31.49
74218;BME280;62579;47.288;18.646;2022-08-04T09:26:49;100000.59;;;31.22;31.42
74218;BME280;62579;47.288;18.646;2022-08-04T09:29:40;99996.41;;;31.23;30.65
74218;BME280;62579;47.288;18.646;2022-08-04T09:32:29;99993.37;;;31.35;31.11
74218;BME280;62579;47.288;18.646;2022-08-04T09:35:28;99990.38;;;31.31;30.36
74218;BME280;62579;47.288;18.646;2022-08-04T09:38:26;99979.56;;;31.41;31.04
74218;BME280;62579;47.288;18.646;2022-08-04T09:46:34;99973.44;;;31.97;30.39
74218;BME280;62579;47.288;18.646;2022-08-04T09:49:06;99972.47;;;32.08;28.60
74218;BME280;62579;47.288;18.646;2022-08-04T09:59:52;99968.53;;;31.80;28.87
74218;BME280;62579;47.288;18.646;2022-08-04T10:02:20;99964.28;;;31.97;29.66
74218;BME280;62579;47.288;18.646;2022-08-04T10:04:49;99965.16;;;31.84;29.22
74218;BME280;62579;47.288;18.646;2022-08-04T10:07:23;99955.37;;;32.02;28.93
74218;BME280;62579;47.288;18.646;2022-08-04T10:10:11;99958.94;;;31.87;29.33
74218;BME280;62579;47.288;18.646;2022-08-04T10:15:27;99958.06;;;32.18;29.17
74218;BME280;62579;47.288;18.646;2022-08-04T10:18:42;99948.59;;;32.09;28.61
74218;BME280;62579;47.288;18.646;2022-08-04T10:21:21;99950.47;;;32.03;29.02
74218;BME280;62579;47.288;18.646;2022-08-04T10:27:08;99942.03;;;32.60;28.79
74218;BME280;62579;47.288;18.646;2022-08-04T10:29:44;99935.78;;;32.44;28.54
74218;BME280;62579;47.288;18.646;2022-08-04T10:32:24;99945.44;;;32.19;28.21
74218;BME280;62579;47.288;18.646;2022-08-04T10:35:16;99945.59;;;32.60;27.55
74218;BME280;62579;47.288;18.646;2022-08-04T10:40:25;99928.44;;;32.94;26.67
74218;BME280;62579;47.288;18.646;2022-08-04T10:43:05;99934.81;;;32.75;27.52
74218;BME280;62579;47.288;18.646;2022-08-04T10:45:39;99925.78;;;32.78;27.54
74218;BME280;62579;47.288;18.646;2022-08-04T10:53:58;99917.63;;;32.86;27.54
74218;BME280;62579;47.288;18.646;2022-08-04T11:10:20;99911.31;;;33.07;26.53
74218;BME280;62579;47.288;18.646;2022-08-04T11:12:49;99908.31;;;33.03;26.53
74218;BME280;62579;47.288;18.646;2022-08-04T11:15:24;99911.97;;;33.28;26.74
74218;BME280;62579;47.288;18.646;2022-08-04T11:17:58;99906.47;;;33.53;26.22
74218;BME280;62579;47.288;18.646;2022-08-04T11:20:39;99913.75;;;33.39;27.26
74218;BME280;62579;47.288;18.646;2022-08-04T11:23:12;99905.94;;;33.80;25.65
74218;BME280;62579;47.288;18.646;2022-08-04T11:29:25;99905.69;;;33.72;25.08
74218;BME280;62579;47.288;18.646;2022-08-04T11:31:56;99912.91;;;33.77;25.28
74218;BME280;62579;47.288;18.646;2022-08-04T11:34:25;99895.97;;;33.77;25.07
74218;BME280;62579;47.288;18.646;2022-08-04T11:37:14;99894.94;;;33.91;25.83
74218;BME280;62579;47.288;18.646;2022-08-04T12:10:11;99861.03;;;34.64;24.28
74218;BME280;62579;47.288;18.646;2022-08-04T12:18:29;99858.06;;;34.85;23.81
74218;BME280;62579;47.288;18.646;2022-08-04T12:20:59;99856.28;;;35.00;24.32
74218;BME280;62579;47.288;18.646;2022-08-04T12:23:31;99849.41;;;35.07;23.42
74218;BME280;62579;47.288;18.646;2022-08-04T12:26:02;99852.69;;;34.97;22.84
74218;BME280;62579;47.288;18.646;2022-08-04T12:28:36;99848.81;;;35.11;22.83
74218;BME280;62579;47.288;18.646;2022-08-04T12:31:18;99850.03;;;35.04;23.24
74218;BME280;62579;47.288;18.646;2022-08-04T12:33:59;99855.31;;;34.62;23.28
74218;BME280;62579;47.288;18.646;2022-08-04T12:39:11;99847.53;;;34.88;24.49
74218;BME280;62579;47.288;18.646;2022-08-04T12:41:47;99838.81;;;35.08;23.19
74218;BME280;62579;47.288;18.646;2022-08-04T12:44:15;99833.66;;;35.28;22.61
74218;BME280;62579;47.288;18.646;2022-08-04T12:46:45;99837.22;;;35.28;22.56
74218;BME280;62579;47.288;18.646;2022-08-04T12:49:12;99836.88;;;35.44;22.26
74218;BME280;62579;47.288;18.646;2022-08-04T12:51:42;99836.91;;;35.78;21.98
74218;BME280;62579;47.288;18.646;2022-08-04T12:54:22;99832.41;;;35.67;20.89
74218;BME280;62579;47.288;18.646;2022-08-04T12:56:52;99830.53;;;35.16;22.12
74218;BME280;62579;47.288;18.646;2022-08-04T12:59:18;99834.37;;;35.58;21.94
74218;BME280;62579;47.288;18.646;2022-08-04T13:01:48;99822.97;;;35.88;21.92
74218;BME280;62579;47.288;18.646;2022-08-04T13:04:18;99831.59;;;35.94;21.81
74218;BME280;62579;47.288;18.646;2022-08-04T13:06:52;99829.69;;;36.04;21.45
74218;BME280;62579;47.288;18.646;2022-08-04T13:09:22;99823.38;;;36.06;21.86
74218;BME280;62579;47.288;18.646;2022-08-04T13:11:54;99822.06;;;36.11;21.35
74218;BME280;62579;47.288;18.646;2022-08-04T13:14:22;99816.38;;;36.11;21.74
74218;BME280;62579;47.288;18.646;2022-08-04T13:16:58;99813.09;;;36.25;21.58
74218;BME280;62579;47.288;18.646;2022-08-04T13:19:25;99805.56;;;36.39;20.70
74218;BME280;62579;47.288;18.646;2022-08-04T13:21:51;99801.16;;;36.30;20.86
74218;BME280;62579;47.288;18.646;2022-08-04T19:27:49;99754.63;;;29.00;33.03
74218;BME280;62579;47.288;18.646;2022-08-04T19:30:15;99759.03;;;28.90;33.58
74218;BME280;62579;47.288;18.646;2022-08-04T19:32:40;99751.19;;;28.73;33.92
74218;BME280;62579;47.288;18.646;2022-08-04T19:35:05;99759.41;;;28.69;33.71
74218;BME280;62579;47.288;18.646;2022-08-04T19:37:31;99753.09;;;28.41;34.07
74218;BME280;62579;47.288;18.646;2022-08-04T19:39:57;99753.50;;;28.22;33.81
74218;BME280;62579;47.288;18.646;2022-08-04T19:42:22;99760.25;;;28.03;34.06
74218;BME280;62579;47.288;18.646;2022-08-04T19:44:48;99754.72;;;27.78;34.72
74218;BME280;62579;47.288;18.646;2022-08-04T19:47:13;99763.34;;;27.57;35.55
74218;BME280;62579;47.288;18.646;2022-08-04T19:49:38;99762.13;;;27.34;36.37
74218;BME280;62579;47.288;18.646;2022-08-04T19:52:04;99765.28;;;27.15;36.90
74218;BME280;62579;47.288;18.646;2022-08-04T19:54:31;99766.81;;;26.93;37.29
74218;BME280;62579;47.288;18.646;2022-08-04T19:56:56;99760.78;;;26.85;37.55
74218;BME280;62579;47.288;18.646;2022-08-04T19:59:21;99764.09;;;26.70;37.90
74218;BME280;62579;47.288;18.646;2022-08-04T20:01:47;99757.19;;;26.59;37.65
74218;BME280;62579;47.288;18.646;2022-08-04T20:04:13;99759.88;;;26.46;38.17
74218;BME280;62579;47.288;18.646;2022-08-04T20:06:39;99762.69;;;26.34;38.49
74218;BME280;62579;47.288;18.646;2022-08-04T20:09:04;99767.78;;;26.14;38.76
74218;BME280;62579;47.288;18.646;2022-08-04T20:11:30;99765.22;;;26.07;39.15
74218;BME280;62579;47.288;18.646;2022-08-04T20:13:55;99775.66;;;25.95;39.42
74218;BME280;62579;47.288;18.646;2022-08-04T20:16:21;99769.34;;;25.83;39.69
74218;BME280;62579;47.288;18.646;2022-08-04T20:18:47;99769.47;;;25.73;39.85
74218;BME280;62579;47.288;18.646;2022-08-04T20:21:12;99771.25;;;25.68;39.89
74218;BME280;62579;47.288;18.646;2022-08-04T20:23:37;99779.00;;;25.58;40.20
74218;BME280;62579;47.288;18.646;2022-08-04T20:26:03;99767.47;;;25.52;40.63
74218;BME280;62579;47.288;18.646;2022-08-04T20:28:28;99767.22;;;25.48;40.61
74218;BME280;62579;47.288;18.646;2022-08-04T20:30:53;99770.94;;;25.41;40.27
74218;BME280;62579;47.288;18.646;2022-08-04T20:33:19;99777.00;;;25.38;39.85
74218;BME280;62579;47.288;18.646;2022-08-04T20:35:45;99772.34;;;25.31;40.58
74218;BME280;62579;47.288;18.646;2022-08-04T20:38:10;99773.66;;;25.18;41.30
74218;BME280;62579;47.288;18.646;2022-08-04T20:40:36;99768.69;;;25.17;41.30
74218;BME280;62579;47.288;18.646;2022-08-04T20:43:01;99774.00;;;25.13;41.69
74218;BME280;62579;47.288;18.646;2022-08-04T20:45:26;99775.75;;;24.96;42.82
74218;BME280;62579;47.288;18.646;2022-08-04T20:47:52;99775.50;;;24.92;42.60
74218;BME280;62579;47.288;18.646;2022-08-04T20:50:17;99770.63;;;24.72;42.99
74218;BME280;62579;47.288;18.646;2022-08-04T20:52:43;99773.59;;;24.43;43.01
74218;BME280;62579;47.288;18.646;2022-08-04T20:55:10;99772.81;;;24.31;43.00
74218;BME280;62579;47.288;18.646;2022-08-04T20:57:36;99781.28;;;24.33;43.41
74218;BME280;62579;47.288;18.646;2022-08-04T21:00:03;99778.22;;;24.29;43.00
74218;BME280;62579;47.288;18.646;2022-08-04T21:02:29;99774.88;;;24.21;42.92
74218;BME280;62579;47.288;18.646;2022-08-04T21:04:54;99781.38;;;24.14;42.81
74218;BME280;62579;47.288;18.646;2022-08-04T21:07:19;99777.97;;;24.15;42.74
74218;BME280;62579;47.288;18.646;2022-08-04T21:09:46;99778.28;;;24.19;43.21
74218;BME280;62579;47.288;18.646;2022-08-04T21:12:13;99775.62;;;24.21;43.08
74218;BME280;62579;47.288;18.646;2022-08-04T21:14:43;99782.97;;;24.17;42.86
74218;BME280;62579;47.288;18.646;2022-08-04T21:17:09;99784.88;;;24.05;43.13
74218;BME280;62579;47.288;18.646;2022-08-04T21:19:35;99787.53;;;24.03;43.40
74218;BME280;62579;47.288;18.646;2022-08-04T21:22:00;99785.06;;;23.97;43.30
74218;BME280;62579;47.288;18.646;2022-08-04T21:24:26;99791.06;;;23.93;44.08
74218;BME280;62579;47.288;18.646;2022-08-04T21:26:52;99792.41;;;23.92;44.47
74218;BME280;62579;47.288;18.646;2022-08-04T21:29:19;99794.91;;;23.88;44.55
74218;BME280;62579;47.288;18.646;2022-08-04T21:31:45;99795.94;;;23.83;44.59
74218;BME280;62579;47.288;18.646;2022-08-04T21:34:11;99794.34;;;23.80;44.91
74218;BME280;62579;47.288;18.646;2022-08-04T21:36:38;99787.91;;;23.78;44.93
74218;BME280;62579;47.288;18.646;2022-08-04T21:39:04;99803.13;;;23.77;44.77
74218;BME280;62579;47.288;18.646;2022-08-04T21:41:31;99800.66;;;23.71;44.90
74218;BME280;62579;47.288;18.646;2022-08-04T21:43:57;99798.50;;;23.60;45.29
74218;BME280;62579;47.288;18.646;2022-08-04T21:46:22;99808.44;;;23.63;45.40
74218;BME280;62579;47.288;18.646;2022-08-04T21:48:48;99811.66;;;23.60;45.02
74218;BME280;62579;47.288;18.646;2022-08-04T21:51:14;99823.66;;;23.43;45.79
74218;BME280;62579;47.288;18.646;2022-08-04T21:53:40;99818.25;;;23.45;46.71
74218;BME280;62579;47.288;18.646;2022-08-04T21:56:05;99826.31;;;23.41;46.29
74218;BME280;62579;47.288;18.646;2022-08-04T21:58:31;99819.72;;;23.17;47.30
74218;BME280;62579;47.288;18.646;2022-08-04T22:00:56;99818.84;;;23.15;47.20
74218;BME280;62579;47.288;18.646;2022-08-04T22:03:21;99823.66;;;23.14;47.07
74218;BME280;62579;47.288;18.646;2022-08-04T22:05:47;99821.62;;;23.15;46.64
74218;BME280;62579;47.288;18.646;2022-08-04T22:08:12;99818.53;;;23.11;46.72
74218;BME280;62579;47.288;18.646;2022-08-04T22:10:37;99821.91;;;23.09;46.78
74218;BME280;62579;47.288;18.646;2022-08-04T22:13:03;99830.50;;;23.13;46.66
74218;BME280;62579;47.288;18.646;2022-08-04T22:15:30;99824.09;;;23.11;46.67
74218;BME280;62579;47.288;18.646;2022-08-04T22:17:56;99823.38;;;23.20;47.00
74218;BME280;62579;47.288;18.646;2022-08-04T22:20:21;99829.78;;;23.32;46.47
74218;BME280;62579;47.288;18.646;2022-08-04T22:22:46;99831.13;;;23.41;45.99
74218;BME280;62579;47.288;18.646;2022-08-04T22:25:13;99829.06;;;23.41;46.29
74218;BME280;62579;47.288;18.646;2022-08-04T22:27:38;99830.66;;;23.34;45.53
74218;BME280;62579;47.288;18.646;2022-08-04T22:30:22;99852.59;;;23.40;45.43
74218;BME280;62579;47.288;18.646;2022-08-04T22:32:48;99831.69;;;23.20;46.82
74218;BME280;62579;47.288;18.646;2022-08-04T22:35:15;99839.88;;;23.18;46.56
74218;BME280;62579;47.288;18.646;2022-08-04T22:37:40;99837.66;;;23.16;46.43
74218;BME280;62579;47.288;18.646;2022-08-04T22:40:06;99833.72;;;23.19;46.09
74218;BME280;62579;47.288;18.646;2022-08-04T22:42:32;99832.44;;;23.20;46.12
74218;BME280;62579;47.288;18.646;2022-08-04T22:44:57;99834.03;;;23.23;46.17
74218;BME280;62579;47.288;18.646;2022-08-04T22:47:23;99835.78;;;23.28;46.26
74218;BME280;62579;47.288;18.646;2022-08-04T22:49:48;99827.75;;;23.23;47.06
74218;BME280;62579;47.288;18.646;2022-08-04T22:52:13;99837.97;;;23.30;46.11
74218;BME280;62579;47.288;18.646;2022-08-04T22:54:39;99838.84;;;23.23;46.22
74218;BME280;62579;47.288;18.646;2022-08-04T22:57:04;99834.16;;;22.97;46.73
74218;BME280;62579;47.288;18.646;2022-08-04T22:59:29;99823.03;;;22.78;47.72
74218;BME280;62579;47.288;18.646;2022-08-04T23:01:55;99823.88;;;22.70;47.99
74218;BME280;62579;47.288;18.646;2022-08-04T23:04:20;99818.06;;;22.76;47.61
74218;BME280;62579;47.288;18.646;2022-08-04T23:06:45;99822.72;;;22.73;47.75
74218;BME280;62579;47.288;18.646;2022-08-04T23:09:11;99826.94;;;22.65;47.81
74218;BME280;62579;47.288;18.646;2022-08-04T23:11:36;99821.41;;;22.65;47.78
74218;BME280;62579;47.288;18.646;2022-08-04T23:14:03;99820.63;;;22.55;49.51
74218;BME280;62579;47.288;18.646;2022-08-04T23:16:28;99823.59;;;22.66;49.58
74218;BME280;62579;47.288;18.646;2022-08-04T23:18:54;99830.12;;;22.61;49.31
74218;BME280;62579;47.288;18.646;2022-08-04T23:21:19;99824.13;;;22.55;48.95
74218;BME280;62579;47.288;18.646;2022-08-04T23:23:44;99828.75;;;22.43;49.58
74218;BME280;62579;47.288;18.646;2022-08-04T23:26:11;99826.16;;;22.45;49.69
74218;BME280;62579;47.288;18.646;2022-08-04T23:28:37;99824.34;;;22.40;49.59
74218;BME280;62579;47.288;18.646;2022-08-04T23:31:02;99825.97;;;22.43;49.44
74218;BME280;62579;47.288;18.646;2022-08-04T23:33:27;99825.84;;;22.41;50.25
74218;BME280;62579;47.288;18.646;2022-08-04T23:35:53;99822.78;;;22.47;49.10
74218;BME280;62579;47.288;18.646;2022-08-04T23:38:18;99820.75;;;22.47;48.63
74218;BME280;62579;47.288;18.646;2022-08-04T23:40:43;99824.41;;;22.50;48.88
74218;BME280;62579;47.288;18.646;2022-08-04T23:43:09;99818.53;;;22.46;48.36
74218;BME280;62579;47.288;18.646;2022-08-04T23:45:34;99813.88;;;22.48;48.27
74218;BME280;62579;47.288;18.646;2022-08-04T23:47:59;99816.22;;;22.52;48.27